sensor_id;sensor_type;location;lat;lon;timestamp;pressure;altitude;pressure_sealevel;temperature;humidity
76866;BME280;66647;52.124;5.416;2023-04-15T00:01:09;100992.91;;;8.34;61.28
76866;BME280;66647;52.124;5.416;2023-04-15T00:03:35;100998.38;;;8.34;61.02
76866;BME280;66647;52.124;5.416;2023-04-15T00:06:02;100998.38;;;8.34;60.72
76866;BME280;66647;52.124;5.416;2023-04-15T00:08:29;100994.59;;;8.30;60.76
76866;BME280;66647;52.124;5.416;2023-04-15T00:10:56;101002.00;;;8.29;60.52
76866;BME280;66647;52.124;5.416;2023-04-15T00:13:24;101002.59;;;8.26;60.83
76866;BME280;66647;52.124;5.416;2023-04-15T00:15:51;100999.06;;;8.26;61.25
76866;BME280;66647;52.124;5.416;2023-04-15T00:18:17;100991.47;;;8.23;60.83
76866;BME280;66647;52.124;5.416;2023-04-15T00:20:46;101001.91;;;8.21;62.09
76866;BME280;66647;52.124;5.416;2023-04-15T00:23:13;100993.19;;;8.19;61.86
76866;BME280;66647;52.124;5.416;2023-04-15T00:25:39;100997.34;;;8.16;61.90
76866;BME280;66647;52.124;5.416;2023-04-15T00:28:06;100994.13;;;8.14;63.08
76866;BME280;66647;52.124;5.416;2023-04-15T00:30:36;100992.31;;;8.09;62.86
76866;BME280;66647;52.124;5.416;2023-04-15T00:33:02;100997.28;;;8.07;62.69
76866;BME280;66647;52.124;5.416;2023-04-15T00:35:29;101002.75;;;8.07;63.91
76866;BME280;66647;52.124;5.416;2023-04-15T00:37:58;100994.66;;;8.02;63.14
76866;BME280;66647;52.124;5.416;2023-04-15T00:40:25;100996.38;;;7.98;64.19
76866;BME280;66647;52.124;5.416;2023-04-15T00:42:53;100989.28;;;7.97;64.67
76866;BME280;66647;52.124;5.416;2023-04-15T00:45:20;100996.16;;;7.95;63.95
76866;BME280;66647;52.124;5.416;2023-04-15T00:47:47;100999.81;;;7.90;63.91
76866;BME280;66647;52.124;5.416;2023-04-15T00:50:13;100997.38;;;7.89;63.65
76866;BME280;66647;52.124;5.416;2023-04-15T00:52:40;101009.09;;;7.89;64.54
76866;BME280;66647;52.124;5.416;2023-04-15T00:55:08;101007.06;;;7.81;64.89
76866;BME280;66647;52.124;5.416;2023-04-15T00:57:35;101004.19;;;7.78;64.46
76866;BME280;66647;52.124;5.416;2023-04-15T01:00:02;101002.03;;;7.74;64.27
76866;BME280;66647;52.124;5.416;2023-04-15T01:02:30;100999.63;;;7.73;64.79
76866;BME280;66647;52.124;5.416;2023-04-15T01:05:00;101007.31;;;7.71;65.00
76866;BME280;66647;52.124;5.416;2023-04-15T01:07:26;101000.81;;;7.67;65.34
76866;BME280;66647;52.124;5.416;2023-04-15T01:09:53;101009.63;;;7.64;66.01
76866;BME280;66647;52.124;5.416;2023-04-15T01:12:19;101004.25;;;7.59;66.43
76866;BME280;66647;52.124;5.416;2023-04-15T01:14:46;101005.97;;;7.55;66.80
76866;BME280;66647;52.124;5.416;2023-04-15T01:17:13;100997.56;;;7.51;67.76
76866;BME280;66647;52.124;5.416;2023-04-15T01:19:39;101002.81;;;7.48;67.72
76866;BME280;66647;52.124;5.416;2023-04-15T01:22:06;100999.19;;;7.38;67.41
76866;BME280;66647;52.124;5.416;2023-04-15T01:24:34;101003.09;;;7.32;67.45
76866;BME280;66647;52.124;5.416;2023-04-15T01:27:01;101000.38;;;7.32;66.77
76866;BME280;66647;52.124;5.416;2023-04-15T01:29:28;101000.66;;;7.31;66.89
76866;BME280;66647;52.124;5.416;2023-04-15T01:31:55;100998.25;;;7.29;67.07
76866;BME280;66647;52.124;5.416;2023-04-15T01:34:24;101004.81;;;7.28;66.69
76866;BME280;66647;52.124;5.416;2023-04-15T01:36:52;101004.81;;;7.28;66.60
76866;BME280;66647;52.124;5.416;2023-04-15T01:39:20;101009.25;;;7.24;67.20
76866;BME280;66647;52.124;5.416;2023-04-15T01:41:47;100998.31;;;7.24;66.67
76866;BME280;66647;52.124;5.416;2023-04-15T01:44:14;101003.56;;;7.21;67.49
76866;BME280;66647;52.124;5.416;2023-04-15T01:46:41;101000.63;;;7.17;66.93
76866;BME280;66647;52.124;5.416;2023-04-15T01:49:08;101007.50;;;7.15;67.93
76866;BME280;66647;52.124;5.416;2023-04-15T01:51:34;101007.31;;;7.11;67.98
76866;BME280;66647;52.124;5.416;2023-04-15T01:54:01;101003.25;;;7.08;68.01
76866;BME280;66647;52.124;5.416;2023-04-15T01:56:28;101005.16;;;7.08;68.27
76866;BME280;66647;52.124;5.416;2023-04-15T01:58:55;101001.72;;;7.02;68.79
76866;BME280;66647;52.124;5.416;2023-04-15T02:01:22;101004.72;;;7.01;68.26
76866;BME280;66647;52.124;5.416;2023-04-15T02:03:50;101008.06;;;6.98;68.19
76866;BME280;66647;52.124;5.416;2023-04-15T02:06:17;101008.34;;;6.96;68.31
76866;BME280;66647;52.124;5.416;2023-04-15T02:08:46;101009.47;;;6.95;68.20
76866;BME280;66647;52.124;5.416;2023-04-15T02:11:13;101007.03;;;6.94;69.99
76866;BME280;66647;52.124;5.416;2023-04-15T02:13:39;101009.53;;;6.90;69.59
76866;BME280;66647;52.124;5.416;2023-04-15T02:16:17;101009.91;;;6.84;69.66
76866;BME280;66647;52.124;5.416;2023-04-15T02:18:45;101014.34;;;6.80;70.32
76866;BME280;66647;52.124;5.416;2023-04-15T02:21:13;101017.66;;;6.77;69.91
76866;BME280;66647;52.124;5.416;2023-04-15T02:23:40;101024.59;;;6.69;69.98
76866;BME280;66647;52.124;5.416;2023-04-15T02:26:06;101016.72;;;6.67;69.89
76866;BME280;66647;52.124;5.416;2023-04-15T02:28:33;101024.38;;;6.65;70.30
76866;BME280;66647;52.124;5.416;2023-04-15T02:31:03;101031.50;;;6.61;70.19
76866;BME280;66647;52.124;5.416;2023-04-15T02:33:31;101033.94;;;6.63;71.10
76866;BME280;66647;52.124;5.416;2023-04-15T02:35:59;101035.34;;;6.60;71.57
76866;BME280;66647;52.124;5.416;2023-04-15T02:38:26;101040.03;;;6.55;72.13
76866;BME280;66647;52.124;5.416;2023-04-15T02:40:52;101043.06;;;6.53;71.99
76866;BME280;66647;52.124;5.416;2023-04-15T02:43:19;101046.88;;;6.52;71.76
76866;BME280;66647;52.124;5.416;2023-04-15T02:45:45;101045.88;;;6.48;72.33
76866;BME280;66647;52.124;5.416;2023-04-15T02:48:12;101040.44;;;6.48;72.12
76866;BME280;66647;52.124;5.416;2023-04-15T02:50:39;101050.81;;;6.46;72.66
76866;BME280;66647;52.124;5.416;2023-04-15T02:53:08;101049.25;;;6.40;72.96
76866;BME280;66647;52.124;5.416;2023-04-15T02:55:34;101051.16;;;6.39;73.37
76866;BME280;66647;52.124;5.416;2023-04-15T02:58:01;101051.47;;;6.38;73.13
76866;BME280;66647;52.124;5.416;2023-04-15T03:00:28;101057.19;;;6.36;73.72
76866;BME280;66647;52.124;5.416;2023-04-15T03:03:00;101052.91;;;6.30;73.98
76866;BME280;66647;52.124;5.416;2023-04-15T03:05:28;101049.44;;;6.25;74.05
76866;BME280;66647;52.124;5.416;2023-04-15T03:07:55;101057.09;;;6.23;74.01
76866;BME280;66647;52.124;5.416;2023-04-15T03:10:21;101057.16;;;6.18;74.29
76866;BME280;66647;52.124;5.416;2023-04-15T03:12:48;101061.56;;;6.14;74.02
76866;BME280;66647;52.124;5.416;2023-04-15T03:15:17;101067.03;;;6.14;74.64
76866;BME280;66647;52.124;5.416;2023-04-15T03:17:47;101059.94;;;6.13;74.37
76866;BME280;66647;52.124;5.416;2023-04-15T03:20:14;101069.81;;;6.09;75.37
76866;BME280;66647;52.124;5.416;2023-04-15T03:22:42;101070.38;;;6.05;74.58
76866;BME280;66647;52.124;5.416;2023-04-15T03:25:08;101076.09;;;6.04;74.81
76866;BME280;66647;52.124;5.416;2023-04-15T03:27:37;101067.94;;;6.04;74.59
76866;BME280;66647;52.124;5.416;2023-04-15T03:30:04;101069.34;;;6.01;75.39
76866;BME280;66647;52.124;5.416;2023-04-15T03:32:34;101074.25;;;5.99;75.22
76866;BME280;66647;52.124;5.416;2023-04-15T03:35:01;101073.72;;;5.97;75.76
76866;BME280;66647;52.124;5.416;2023-04-15T03:37:27;101070.78;;;5.94;75.74
76866;BME280;66647;52.124;5.416;2023-04-15T03:39:54;101078.94;;;5.94;75.60
76866;BME280;66647;52.124;5.416;2023-04-15T03:42:21;101074.06;;;5.91;76.17
76866;BME280;66647;52.124;5.416;2023-04-15T03:44:47;101075.41;;;5.88;75.49
76866;BME280;66647;52.124;5.416;2023-04-15T03:47:14;101080.66;;;5.85;76.30
76866;BME280;66647;52.124;5.416;2023-04-15T03:49:40;101093.22;;;5.81;76.63
76866;BME280;66647;52.124;5.416;2023-04-15T03:52:07;101092.69;;;5.79;76.32
76866;BME280;66647;52.124;5.416;2023-04-15T03:54:33;101095.16;;;5.75;76.53
76866;BME280;66647;52.124;5.416;2023-04-15T03:57:00;101102.84;;;5.68;77.15
76866;BME280;66647;52.124;5.416;2023-04-15T03:59:26;101103.19;;;5.61;76.67
76866;BME280;66647;52.124;5.416;2023-04-15T04:01:53;101103.47;;;5.60;76.77
76866;BME280;66647;52.124;5.416;2023-04-15T04:04:20;101101.31;;;5.57;77.08
76866;BME280;66647;52.124;5.416;2023-04-15T04:06:46;101105.69;;;5.53;77.01
76866;BME280;66647;52.124;5.416;2023-04-15T04:09:13;101110.66;;;5.51;77.11
76866;BME280;66647;52.124;5.416;2023-04-15T04:11:39;101116.94;;;5.46;77.81
76866;BME280;66647;52.124;5.416;2023-04-15T04:14:06;101126.47;;;5.44;77.76
76866;BME280;66647;52.124;5.416;2023-04-15T04:16:32;101125.94;;;5.42;77.74
76866;BME280;66647;52.124;5.416;2023-04-15T04:18:59;101125.94;;;5.42;77.30
76866;BME280;66647;52.124;5.416;2023-04-15T04:21:26;101119.16;;;5.39;77.70
76866;BME280;66647;52.124;5.416;2023-04-15T04:23:53;101124.63;;;5.34;77.58
76866;BME280;66647;52.124;5.416;2023-04-15T04:26:20;101127.38;;;5.29;77.70
76866;BME280;66647;52.124;5.416;2023-04-15T04:28:47;101138.00;;;5.25;77.85
76866;BME280;66647;52.124;5.416;2023-04-15T04:31:13;101133.72;;;5.19;78.25
76866;BME280;66647;52.124;5.416;2023-04-15T04:33:40;101131.84;;;5.15;77.81
76866;BME280;66647;52.124;5.416;2023-04-15T04:36:06;101143.00;;;5.13;77.91
76866;BME280;66647;52.124;5.416;2023-04-15T04:38:33;101152.28;;;5.07;78.36
76866;BME280;66647;52.124;5.416;2023-04-15T04:41:00;101149.03;;;5.05;78.80
76866;BME280;66647;52.124;5.416;2023-04-15T04:43:26;101159.91;;;5.05;78.83
76866;BME280;66647;52.124;5.416;2023-04-15T04:45:53;101164.53;;;5.04;78.62
76866;BME280;66647;52.124;5.416;2023-04-15T04:48:19;101165.09;;;5.01;78.81
76866;BME280;66647;52.124;5.416;2023-04-15T04:50:46;101171.63;;;4.95;79.01
76866;BME280;66647;52.124;5.416;2023-04-15T04:53:13;101177.34;;;4.94;79.48
76866;BME280;66647;52.124;5.416;2023-04-15T04:55:40;101179.59;;;4.87;79.25
76866;BME280;66647;52.124;5.416;2023-04-15T04:58:06;101181.78;;;4.85;79.75
76866;BME280;66647;52.124;5.416;2023-04-15T05:00:33;101184.75;;;4.83;79.84
76866;BME280;66647;52.124;5.416;2023-04-15T05:02:59;101191.56;;;4.81;79.68
76866;BME280;66647;52.124;5.416;2023-04-15T05:05:26;101181.50;;;4.81;80.00
76866;BME280;66647;52.124;5.416;2023-04-15T05:07:53;101193.19;;;4.82;80.15
76866;BME280;66647;52.124;5.416;2023-04-15T05:10:19;101197.53;;;4.83;80.17
76866;BME280;66647;52.124;5.416;2023-04-15T05:12:46;101205.13;;;4.86;80.24
76866;BME280;66647;52.124;5.416;2023-04-15T05:15:12;101196.44;;;4.84;80.04
76866;BME280;66647;52.124;5.416;2023-04-15T05:17:39;101212.75;;;4.84;80.21
76866;BME280;66647;52.124;5.416;2023-04-15T05:20:06;101214.38;;;4.85;80.29
76866;BME280;66647;52.124;5.416;2023-04-15T05:22:32;101213.28;;;4.86;80.39
76866;BME280;66647;52.124;5.416;2023-04-15T05:24:59;101212.69;;;4.89;80.72
76866;BME280;66647;52.124;5.416;2023-04-15T05:27:26;101218.66;;;4.91;80.94
76866;BME280;66647;52.124;5.416;2023-04-15T05:29:53;101221.91;;;4.93;81.33
76866;BME280;66647;52.124;5.416;2023-04-15T05:32:19;101222.19;;;4.96;81.55
76866;BME280;66647;52.124;5.416;2023-04-15T05:34:46;101230.31;;;5.01;81.56
76866;BME280;66647;52.124;5.416;2023-04-15T05:37:13;101230.00;;;5.08;81.73
76866;BME280;66647;52.124;5.416;2023-04-15T05:39:39;101237.34;;;5.13;81.80
76866;BME280;66647;52.124;5.416;2023-04-15T05:42:06;101243.03;;;5.16;81.93
76866;BME280;66647;52.124;5.416;2023-04-15T05:44:33;101247.31;;;5.22;82.18
76866;BME280;66647;52.124;5.416;2023-04-15T05:46:59;101253.19;;;5.45;82.23
76866;BME280;66647;52.124;5.416;2023-04-15T05:49:27;101247.47;;;5.46;81.93
76866;BME280;66647;52.124;5.416;2023-04-15T05:51:53;101254.00;;;5.45;82.05
76866;BME280;66647;52.124;5.416;2023-04-15T05:54:20;101266.22;;;5.48;81.62
76866;BME280;66647;52.124;5.416;2023-04-15T05:56:49;101266.50;;;5.46;81.89
76866;BME280;66647;52.124;5.416;2023-04-15T05:59:16;101266.78;;;5.45;82.17
76866;BME280;66647;52.124;5.416;2023-04-15T06:01:42;101273.84;;;5.46;82.31
76866;BME280;66647;52.124;5.416;2023-04-15T06:04:10;101272.47;;;5.48;82.43
76866;BME280;66647;52.124;5.416;2023-04-15T06:06:40;101274.91;;;5.50;82.24
76866;BME280;66647;52.124;5.416;2023-04-15T06:09:07;101284.13;;;5.54;82.34
76866;BME280;66647;52.124;5.416;2023-04-15T06:11:33;101287.34;;;5.61;81.75
76866;BME280;66647;52.124;5.416;2023-04-15T06:14:00;101287.28;;;5.71;82.39
76866;BME280;66647;52.124;5.416;2023-04-15T06:16:29;101300.31;;;5.79;82.31
76866;BME280;66647;52.124;5.416;2023-04-15T06:18:56;101289.38;;;5.84;82.32
76866;BME280;66647;52.124;5.416;2023-04-15T06:21:23;101302.38;;;5.97;82.15
76866;BME280;66647;52.124;5.416;2023-04-15T06:23:49;101303.81;;;6.19;81.55
76866;BME280;66647;52.124;5.416;2023-04-15T06:26:16;101307.84;;;6.55;81.56
76866;BME280;66647;52.124;5.416;2023-04-15T06:28:42;101312.44;;;6.84;80.88
76866;BME280;66647;52.124;5.416;2023-04-15T06:31:09;101316.97;;;7.17;79.93
76866;BME280;66647;52.124;5.416;2023-04-15T06:33:35;101311.00;;;7.39;78.83
76866;BME280;66647;52.124;5.416;2023-04-15T06:36:02;101314.47;;;7.45;78.41
76866;BME280;66647;52.124;5.416;2023-04-15T06:38:29;101311.81;;;7.77;78.28
76866;BME280;66647;52.124;5.416;2023-04-15T06:40:55;101311.91;;;8.42;75.66
76866;BME280;66647;52.124;5.416;2023-04-15T06:43:22;101327.63;;;8.77;74.64
76866;BME280;66647;52.124;5.416;2023-04-15T06:45:51;101324.72;;;9.15;73.06
76866;BME280;66647;52.124;5.416;2023-04-15T06:48:19;101331.00;;;9.16;72.90
76866;BME280;66647;52.124;5.416;2023-04-15T06:50:45;101340.03;;;8.89;73.93
76866;BME280;66647;52.124;5.416;2023-04-15T06:53:13;101352.44;;;8.67;73.82
76866;BME280;66647;52.124;5.416;2023-04-15T06:55:40;101343.44;;;8.67;74.64
76866;BME280;66647;52.124;5.416;2023-04-15T06:58:08;101353.72;;;9.16;73.45
76866;BME280;66647;52.124;5.416;2023-04-15T07:00:35;101350.84;;;9.62;72.83
76866;BME280;66647;52.124;5.416;2023-04-15T07:03:04;101358.72;;;9.77;72.50
76866;BME280;66647;52.124;5.416;2023-04-15T07:05:30;101361.06;;;10.42;70.46
76866;BME280;66647;52.124;5.416;2023-04-15T07:07:57;101365.41;;;10.43;69.50
76866;BME280;66647;52.124;5.416;2023-04-15T07:10:24;101371.34;;;10.37;70.15
76866;BME280;66647;52.124;5.416;2023-04-15T07:12:51;101375.03;;;10.32;70.28
76866;BME280;66647;52.124;5.416;2023-04-15T07:15:17;101374.28;;;10.04;70.29
76866;BME280;66647;52.124;5.416;2023-04-15T07:17:44;101379.50;;;10.15;70.20
76866;BME280;66647;52.124;5.416;2023-04-15T07:20:12;101386.69;;;10.38;70.02
76866;BME280;66647;52.124;5.416;2023-04-15T07:22:39;101395.84;;;10.56;70.33
76866;BME280;66647;52.124;5.416;2023-04-15T07:25:06;101393.16;;;10.64;68.85
76866;BME280;66647;52.124;5.416;2023-04-15T07:27:36;101399.69;;;10.55;69.51
76866;BME280;66647;52.124;5.416;2023-04-15T07:30:03;101396.16;;;10.54;69.61
76866;BME280;66647;52.124;5.416;2023-04-15T07:32:29;101398.13;;;10.62;69.59
76866;BME280;66647;52.124;5.416;2023-04-15T07:34:56;101407.78;;;11.13;68.42
76866;BME280;66647;52.124;5.416;2023-04-15T07:37:23;101410.31;;;11.89;67.18
76866;BME280;66647;52.124;5.416;2023-04-15T07:39:49;101399.84;;;12.51;64.19
76866;BME280;66647;52.124;5.416;2023-04-15T07:42:16;101402.78;;;13.19;62.56
76866;BME280;66647;52.124;5.416;2023-04-15T07:44:42;101393.41;;;13.99;59.36
76866;BME280;66647;52.124;5.416;2023-04-15T07:47:35;101411.09;;;14.40;57.33
76866;BME280;66647;52.124;5.416;2023-04-15T07:50:04;101414.78;;;14.53;53.80
76866;BME280;66647;52.124;5.416;2023-04-15T07:52:32;101410.34;;;14.72;53.68
76866;BME280;66647;52.124;5.416;2023-04-15T07:55:06;101409.94;;;14.83;52.01
76866;BME280;66647;52.124;5.416;2023-04-15T07:57:48;101410.75;;;14.62;51.53
76866;BME280;66647;52.124;5.416;2023-04-15T08:00:15;101420.09;;;14.91;51.21
76866;BME280;66647;52.124;5.416;2023-04-15T08:02:42;101417.84;;;15.17;51.00
76866;BME280;66647;52.124;5.416;2023-04-15T08:05:09;101424.16;;;15.30;51.10
76866;BME280;66647;52.124;5.416;2023-04-15T08:07:36;101427.22;;;15.04;50.03
76866;BME280;66647;52.124;5.416;2023-04-15T08:10:04;101430.81;;;15.04;50.63
76866;BME280;66647;52.124;5.416;2023-04-15T08:12:30;101424.75;;;15.23;50.43
76866;BME280;66647;52.124;5.416;2023-04-15T08:14:57;101434.78;;;15.40;48.63
76866;BME280;66647;52.124;5.416;2023-04-15T08:17:24;101437.03;;;15.59;49.81
76866;BME280;66647;52.124;5.416;2023-04-15T08:19:52;101437.91;;;15.99;49.38
76866;BME280;66647;52.124;5.416;2023-04-15T08:22:23;101447.81;;;16.00;46.82
76866;BME280;66647;52.124;5.416;2023-04-15T08:24:50;101446.44;;;16.06;47.20
76866;BME280;66647;52.124;5.416;2023-04-15T08:27:18;101445.09;;;15.88;47.91
76866;BME280;66647;52.124;5.416;2023-04-15T08:29:45;101444.69;;;16.02;47.86
76866;BME280;66647;52.124;5.416;2023-04-15T08:32:16;101440.38;;;16.29;46.56
76866;BME280;66647;52.124;5.416;2023-04-15T08:34:42;101453.75;;;16.39;47.23
76866;BME280;66647;52.124;5.416;2023-04-15T08:37:08;101459.19;;;16.63;45.89
76866;BME280;66647;52.124;5.416;2023-04-15T08:39:38;101451.13;;;16.58;45.19
76866;BME280;66647;52.124;5.416;2023-04-15T08:42:11;101463.44;;;16.33;45.86
76866;BME280;66647;52.124;5.416;2023-04-15T08:44:42;101463.88;;;16.47;44.99
76866;BME280;66647;52.124;5.416;2023-04-15T08:47:12;101478.47;;;15.95;46.02
76866;BME280;66647;52.124;5.416;2023-04-15T08:49:41;101486.56;;;15.76;47.28
76866;BME280;66647;52.124;5.416;2023-04-15T08:52:08;101485.28;;;15.73;47.15
76866;BME280;66647;52.124;5.416;2023-04-15T08:54:35;101484.13;;;15.74;46.91
76866;BME280;66647;52.124;5.416;2023-04-15T08:57:02;101493.91;;;15.60;47.36
76866;BME280;66647;52.124;5.416;2023-04-15T08:59:29;101501.69;;;15.45;47.06
76866;BME280;66647;52.124;5.416;2023-04-15T09:01:59;101502.63;;;15.50;47.90
76866;BME280;66647;52.124;5.416;2023-04-15T09:04:27;101501.41;;;15.71;47.22
76866;BME280;66647;52.124;5.416;2023-04-15T09:06:53;101502.59;;;15.83;47.05
76866;BME280;66647;52.124;5.416;2023-04-15T09:09:20;101515.59;;;15.94;47.22
76866;BME280;66647;52.124;5.416;2023-04-15T09:11:47;101515.03;;;16.01;47.09
76866;BME280;66647;52.124;5.416;2023-04-15T09:14:15;101517.59;;;16.58;46.15
76866;BME280;66647;52.124;5.416;2023-04-15T09:17:00;101518.22;;;17.20;47.71
76866;BME280;66647;52.124;5.416;2023-04-15T09:19:27;101524.72;;;17.27;46.66
76866;BME280;66647;52.124;5.416;2023-04-15T09:21:55;101526.66;;;17.55;44.99
76866;BME280;66647;52.124;5.416;2023-04-15T09:24:25;101523.59;;;17.60;44.60
76866;BME280;66647;52.124;5.416;2023-04-15T09:26:59;101541.25;;;17.52;44.80
76866;BME280;66647;52.124;5.416;2023-04-15T09:29:25;101539.50;;;17.31;45.47
76866;BME280;66647;52.124;5.416;2023-04-15T09:31:52;101549.78;;;17.31;44.60
76866;BME280;66647;52.124;5.416;2023-04-15T09:34:19;101550.94;;;17.30;45.98
76866;BME280;66647;52.124;5.416;2023-04-15T09:36:55;101550.38;;;17.24;45.43
76866;BME280;66647;52.124;5.416;2023-04-15T09:39:22;101544.78;;;17.36;44.80
76866;BME280;66647;52.124;5.416;2023-04-15T09:42:09;101547.22;;;16.82;45.29
76866;BME280;66647;52.124;5.416;2023-04-15T09:44:36;101552.47;;;16.47;46.61
76866;BME280;66647;52.124;5.416;2023-04-15T09:47:02;101553.59;;;16.70;47.35
76866;BME280;66647;52.124;5.416;2023-04-15T09:49:29;101552.81;;;16.98;46.46
76866;BME280;66647;52.124;5.416;2023-04-15T09:52:02;101552.81;;;16.98;46.57
76866;BME280;66647;52.124;5.416;2023-04-15T09:54:33;101557.75;;;17.04;46.62
76866;BME280;66647;52.124;5.416;2023-04-15T09:57:07;101562.59;;;17.07;45.79
76866;BME280;66647;52.124;5.416;2023-04-15T09:59:34;101555.44;;;17.06;44.71
76866;BME280;66647;52.124;5.416;2023-04-15T10:02:03;101557.38;;;17.18;44.54
76866;BME280;66647;52.124;5.416;2023-04-15T10:04:33;101566.56;;;17.22;43.65
76866;BME280;66647;52.124;5.416;2023-04-15T10:07:02;101571.97;;;17.31;44.21
76866;BME280;66647;52.124;5.416;2023-04-15T10:09:30;101567.88;;;17.40;44.65
76866;BME280;66647;52.124;5.416;2023-04-15T10:11:59;101570.84;;;17.48;44.29
76866;BME280;66647;52.124;5.416;2023-04-15T10:14:32;101573.94;;;17.30;46.39
76866;BME280;66647;52.124;5.416;2023-04-15T10:17:00;101585.56;;;17.08;45.54
76866;BME280;66647;52.124;5.416;2023-04-15T10:22:07;101577.16;;;17.32;43.61
76866;BME280;66647;52.124;5.416;2023-04-15T10:24:34;101587.69;;;17.27;43.83
76866;BME280;66647;52.124;5.416;2023-04-15T10:27:09;101575.50;;;17.43;44.10
76866;BME280;66647;52.124;5.416;2023-04-15T10:29:39;101572.22;;;17.54;43.90
76866;BME280;66647;52.124;5.416;2023-04-15T10:32:20;101566.44;;;17.90;43.79
76866;BME280;66647;52.124;5.416;2023-04-15T10:34:50;101573.69;;;17.95;44.39
76866;BME280;66647;52.124;5.416;2023-04-15T10:37:43;101575.44;;;18.34;44.74
76866;BME280;66647;52.124;5.416;2023-04-15T10:40:34;101576.22;;;18.66;42.77
76866;BME280;66647;52.124;5.416;2023-04-15T10:43:04;101580.91;;;18.31;43.28
76866;BME280;66647;52.124;5.416;2023-04-15T10:45:59;101586.72;;;18.26;43.56
76866;BME280;66647;52.124;5.416;2023-04-15T10:48:34;101603.13;;;17.99;44.43
76866;BME280;66647;52.124;5.416;2023-04-15T10:51:04;101606.03;;;17.03;44.04
76866;BME280;66647;52.124;5.416;2023-04-15T10:53:33;101607.78;;;17.24;44.25
76866;BME280;66647;52.124;5.416;2023-04-15T10:55:59;101596.25;;;17.77;44.49
76866;BME280;66647;52.124;5.416;2023-04-15T10:59:01;101596.97;;;18.06;42.50
76866;BME280;66647;52.124;5.416;2023-04-15T11:01:54;101613.78;;;17.82;43.32
76866;BME280;66647;52.124;5.416;2023-04-15T11:04:55;101612.44;;;17.48;43.77
76866;BME280;66647;52.124;5.416;2023-04-15T11:19:08;101616.22;;;17.83;42.69
76866;BME280;66647;52.124;5.416;2023-04-15T11:21:35;101619.50;;;17.89;43.45
76866;BME280;66647;52.124;5.416;2023-04-15T11:24:10;101629.78;;;17.72;41.78
76866;BME280;66647;52.124;5.416;2023-04-15T11:26:44;101629.19;;;17.95;41.37
76866;BME280;66647;52.124;5.416;2023-04-15T11:29:17;101632.06;;;18.14;42.61
76866;BME280;66647;52.124;5.416;2023-04-15T11:31:46;101618.53;;;18.44;41.11
76866;BME280;66647;52.124;5.416;2023-04-15T11:34:33;101616.69;;;18.83;41.73
76866;BME280;66647;52.124;5.416;2023-04-15T11:37:15;101621.28;;;18.75;42.25
76866;BME280;66647;52.124;5.416;2023-04-15T11:39:41;101621.06;;;18.18;43.79
76866;BME280;66647;52.124;5.416;2023-04-15T11:42:17;101614.41;;;18.38;42.66
76866;BME280;66647;52.124;5.416;2023-04-15T11:44:43;101621.75;;;18.46;42.36
76866;BME280;66647;52.124;5.416;2023-04-15T11:47:23;101626.66;;;18.53;43.24
76866;BME280;66647;52.124;5.416;2023-04-15T11:49:50;101627.78;;;18.17;42.21
76866;BME280;66647;52.124;5.416;2023-04-15T11:52:17;101629.34;;;17.70;42.75
76866;BME280;66647;52.124;5.416;2023-04-15T11:54:44;101636.50;;;17.43;45.69
76866;BME280;66647;52.124;5.416;2023-04-15T12:00:38;101642.84;;;17.16;44.94
76866;BME280;66647;52.124;5.416;2023-04-15T12:03:27;101657.69;;;16.84;45.33
76866;BME280;66647;52.124;5.416;2023-04-15T12:06:19;101649.06;;;17.13;45.45
76866;BME280;66647;52.124;5.416;2023-04-15T12:09:03;101651.09;;;17.28;45.69
76866;BME280;66647;52.124;5.416;2023-04-15T12:19:35;101668.63;;;16.43;46.49
76866;BME280;66647;52.124;5.416;2023-04-15T12:22:08;101676.00;;;16.39;48.20
76866;BME280;66647;52.124;5.416;2023-04-15T12:24:36;101675.31;;;16.42;46.70
76866;BME280;66647;52.124;5.416;2023-04-15T12:27:07;101687.44;;;16.50;46.35
76866;BME280;66647;52.124;5.416;2023-04-15T12:29:37;101679.00;;;16.46;46.90
76866;BME280;66647;52.124;5.416;2023-04-15T12:32:11;101687.66;;;16.57;47.27
76866;BME280;66647;52.124;5.416;2023-04-15T12:34:48;101693.41;;;16.40;47.95
76866;BME280;66647;52.124;5.416;2023-04-15T12:37:16;101684.88;;;16.21;47.43
76866;BME280;66647;52.124;5.416;2023-04-15T12:39:44;101691.56;;;16.20;49.08
76866;BME280;66647;52.124;5.416;2023-04-15T12:42:11;101692.88;;;15.89;48.38
76866;BME280;66647;52.124;5.416;2023-04-15T12:44:38;101702.00;;;15.69;49.63
76866;BME280;66647;52.124;5.416;2023-04-15T12:47:14;101706.09;;;15.84;49.38
76866;BME280;66647;52.124;5.416;2023-04-15T12:50:16;101717.97;;;15.84;48.10
76866;BME280;66647;52.124;5.416;2023-04-15T12:52:53;101723.19;;;15.65;49.17
76866;BME280;66647;52.124;5.416;2023-04-15T12:56:06;101728.44;;;15.78;49.64
76866;BME280;66647;52.124;5.416;2023-04-15T12:58:39;101722.38;;;15.64;50.68
76866;BME280;66647;52.124;5.416;2023-04-15T13:01:05;101714.69;;;15.49;48.36
76866;BME280;66647;52.124;5.416;2023-04-15T13:03:32;101725.31;;;15.38;50.36
76866;BME280;66647;52.124;5.416;2023-04-15T13:05:59;101735.97;;;15.49;49.44
76866;BME280;66647;52.124;5.416;2023-04-15T13:08:27;101732.31;;;15.36;49.69
76866;BME280;66647;52.124;5.416;2023-04-15T13:10:54;101729.66;;;15.48;49.96
76866;BME280;66647;52.124;5.416;2023-04-15T13:13:20;101746.72;;;15.50;51.01
76866;BME280;66647;52.124;5.416;2023-04-15T13:15:48;101748.91;;;15.15;50.91
76866;BME280;66647;52.124;5.416;2023-04-15T13:18:15;101742.38;;;14.90;52.56
76866;BME280;66647;52.124;5.416;2023-04-15T13:20:42;101746.16;;;14.86;52.75
76866;BME280;66647;52.124;5.416;2023-04-15T13:23:09;101753.19;;;14.66;53.56
76866;BME280;66647;52.124;5.416;2023-04-15T13:25:36;101754.72;;;14.55;54.44
76866;BME280;66647;52.124;5.416;2023-04-15T13:28:02;101769.56;;;14.24;54.85
76866;BME280;66647;52.124;5.416;2023-04-15T13:30:29;101779.63;;;14.20;53.87